Bookmark and Share
Track history (hours):
 

Volgo-balt 229

Last reported at 2014-Apr-03 17:31 UTC. Time now 2014-Apr-16 22:27 UTC.
Position N 56°00' E 018°18'.
Warning: this ship's position is 13 days out of date.

Length 114 m; draft 2.6 m.

Type: Cargo ship. MMSI: 273336300.

NotesDate/timePositionNaut miles runAvg speedWind from/ knotsBaromVisibWave heightAir tempDewpointWater temp
2014-Apr-03 17:31N 56°00' E 018°18'9 8.1
2014-Apr-03 16:21N 55°54' E 018°05'8 8.3
2014-Apr-03 15:24N 55°50' E 017°54'93 5.9
2014-Apr-02 23:30N 55°04' E 015°30'8 7.8
2014-Apr-02 22:29N 54°60' E 015°19'16 7.5
2014-Apr-02 20:16N 54°56' E 014°51'5 6.9
2014-Apr-02 19:33N 54°55' E 014°42'7 6.7
2014-Apr-02 18:33N 54°54' E 014°31'7 6.8
2014-Apr-02 17:33N 54°54' E 014°19'7 6.6
2014-Apr-02 16:33N 54°53' E 014°08'6 6.4
2014-Apr-02 15:33N 54°52' E 013°57'6 6.4
2014-Apr-02 14:33N 54°52' E 013°46'6 6.0
2014-Apr-02 13:33N 54°51' E 013°35'5 4.5
2014-Apr-02 12:33N 54°50' E 013°28'5 4.8
2014-Apr-02 11:33N 54°50' E 013°19'5 4.5
2014-Apr-02 10:33N 54°49' E 013°12'5 4.4
2014-Apr-02 09:31N 54°47' E 013°04'10 4.8
2014-Apr-02 07:32N 54°43' E 012°49'5 5.2
2014-Apr-02 06:33N 54°40' E 012°42'5 5.3
2014-Apr-02 05:33N 54°37' E 012°34'5 5.1
2014-Apr-02 04:33N 54°35' E 012°27'5 5.2
2014-Apr-02 03:31N 54°32' E 012°19'5 5.2
2014-Apr-02 02:33N 54°27' E 012°14'5 4.8
2014-Apr-02 01:33N 54°24' E 012°09'5 5.0
2014-Apr-02 00:33N 54°24' E 011°60'6 5.5
2014-Apr-01 23:33N 54°24' E 011°50'5 5.5
2014-Apr-01 22:34N 54°26' E 011°42'5 5.2
2014-Apr-01 21:34N 54°28' E 011°33'5 4.8
2014-Apr-01 20:33N 54°30' E 011°26'5 4.5
2014-Apr-01 19:32N 54°32' E 011°19'4 3.7
2014-Apr-01 18:33N 54°34' E 011°13'54 5.4
2014-Apr-01 08:33N 54°20' E 009°44'3 0.4
2014-Apr-01 01:18N 54°18' E 009°41'0 0.0
2014-Apr-01 00:15N 54°18' E 009°41'0 0.0
2014-Mar-31 23:24N 54°18' E 009°41'0 0.0
2014-Mar-31 22:33N 54°18' E 009°41'0 0.0
2014-Mar-31 21:21N 54°18' E 009°41'0 0.0
2014-Mar-31 20:30N 54°18' E 009°41'0 0.0
2014-Mar-31 19:27N 54°18' E 009°41'0 0.0
2014-Mar-31 18:26N 54°18' E 009°41'0 0.0
2014-Mar-31 12:22N 54°18' E 009°41'0 0.0
2014-Mar-31 09:28N 54°18' E 009°41'0 0.0
2014-Mar-31 08:31N 54°18' E 009°41'0 0.0
2014-Mar-31 07:28N 54°18' E 009°41'0 0.0
2014-Mar-31 06:28N 54°18' E 009°41'0 0.0
2014-Mar-31 05:12N 54°18' E 009°41'0 0.0
2014-Mar-31 04:33N 54°18' E 009°41'0 0.0
2014-Mar-31 03:30N 54°18' E 009°41'0 0.0
2014-Mar-31 02:33N 54°18' E 009°41'0 0.0
2014-Mar-30 01:18N 54°18' E 009°41'0 0.0
2014-Mar-29 23:21N 54°18' E 009°41'0 0.0
2014-Mar-29 21:13N 54°18' E 009°41'0 0.0
2014-Mar-29 20:25N 54°18' E 009°41'52 1.0
2014-Mar-27 17:33N 54°36' E 011°04'9 9.6
2014-Mar-27 16:33N 54°34' E 011°19'10 9.2
2014-Mar-27 15:29N 54°30' E 011°35'8 8.8
2014-Mar-27 14:33N 54°27' E 011°48'9 9.2
2014-Mar-27 13:33N 54°27' E 012°04'7 7.4
2014-Mar-27 12:33N 54°32' E 012°12'8 7.4
2014-Mar-27 11:25N 54°40' E 012°20'7 8.0
2014-Mar-27 10:31N 54°43' E 012°31'23 7.7
2014-Mar-27 07:29N 54°53' E 013°08'11 7.6
2014-Mar-27 06:04N 54°54' E 013°26'4 7.4
2014-Mar-27 05:32N 54°54' E 013°33'8 7.7
2014-Mar-27 04:33N 54°54' E 013°46'8 8.2
2014-Mar-27 03:34N 54°54' E 014°00'8 8.2
2014-Mar-27 02:33N 54°54' E 014°15'8 8.1
2014-Mar-27 01:33N 54°55' E 014°29'9 8.0
2014-Mar-27 00:27N 54°55' E 014°44'  

Dump ship's entire track history

sailing weather and tide predictions

Volgo-balt 229 — UHZF — position and weather